sensor_id;sensor_type;location;lat;lon;timestamp;P1;durP1;ratioP1;P2;durP2;ratioP2
73276;SDS011;61501;43.316;5.372;2023-04-03T00:01:12;2.95;;;1.80;;
73276;SDS011;61501;43.316;5.372;2023-04-03T00:03:38;1.83;;;1.40;;
73276;SDS011;61501;43.316;5.372;2023-04-03T00:06:03;1.77;;;1.42;;
73276;SDS011;61501;43.316;5.372;2023-04-03T00:08:31;1.30;;;1.00;;
73276;SDS011;61501;43.316;5.372;2023-04-03T00:10:57;1.27;;;0.90;;
73276;SDS011;61501;43.316;5.372;2023-04-03T00:13:24;1.40;;;0.93;;
73276;SDS011;61501;43.316;5.372;2023-04-03T00:15:50;1.08;;;0.88;;
73276;SDS011;61501;43.316;5.372;2023-04-03T00:18:15;2.13;;;1.10;;
73276;SDS011;61501;43.316;5.372;2023-04-03T00:20:41;0.90;;;0.75;;
73276;SDS011;61501;43.316;5.372;2023-04-03T00:23:07;1.55;;;0.98;;
73276;SDS011;61501;43.316;5.372;2023-04-03T00:25:33;1.05;;;0.80;;
73276;SDS011;61501;43.316;5.372;2023-04-03T00:27:59;1.67;;;0.90;;
73276;SDS011;61501;43.316;5.372;2023-04-03T00:30:25;1.08;;;0.98;;
73276;SDS011;61501;43.316;5.372;2023-04-03T00:32:51;1.00;;;0.80;;
73276;SDS011;61501;43.316;5.372;2023-04-03T00:35:18;1.05;;;0.80;;
73276;SDS011;61501;43.316;5.372;2023-04-03T00:37:45;0.80;;;0.80;;
73276;SDS011;61501;43.316;5.372;2023-04-03T00:40:11;1.42;;;0.95;;
73276;SDS011;61501;43.316;5.372;2023-04-03T00:42:40;0.75;;;0.65;;
73276;SDS011;61501;43.316;5.372;2023-04-03T00:47:36;2.03;;;0.80;;
73276;SDS011;61501;43.316;5.372;2023-04-03T00:50:04;0.57;;;0.50;;
73276;SDS011;61501;43.316;5.372;2023-04-03T00:52:30;1.40;;;0.60;;
73276;SDS011;61501;43.316;5.372;2023-04-03T00:55:01;1.45;;;0.70;;
73276;SDS011;61501;43.316;5.372;2023-04-03T00:57:29;0.93;;;0.80;;
73276;SDS011;61501;43.316;5.372;2023-04-03T01:00:00;0.70;;;0.63;;
73276;SDS011;61501;43.316;5.372;2023-04-03T01:02:30;1.05;;;0.75;;
73276;SDS011;61501;43.316;5.372;2023-04-03T01:04:56;1.35;;;0.63;;
73276;SDS011;61501;43.316;5.372;2023-04-03T01:07:29;1.50;;;1.13;;
73276;SDS011;61501;43.316;5.372;2023-04-03T01:09:56;1.20;;;0.70;;
73276;SDS011;61501;43.316;5.372;2023-04-03T01:14:55;1.10;;;0.80;;
73276;SDS011;61501;43.316;5.372;2023-04-03T01:20:22;1.90;;;1.00;;
73276;SDS011;61501;43.316;5.372;2023-04-03T01:25:38;1.73;;;1.20;;
73276;SDS011;61501;43.316;5.372;2023-04-03T01:28:11;1.90;;;1.50;;
73276;SDS011;61501;43.316;5.372;2023-04-03T01:30:50;2.03;;;1.25;;
73276;SDS011;61501;43.316;5.372;2023-04-03T01:33:24;1.38;;;1.08;;
73276;SDS011;61501;43.316;5.372;2023-04-03T01:35:50;2.03;;;1.13;;
73276;SDS011;61501;43.316;5.372;2023-04-03T01:38:16;1.67;;;1.20;;
73276;SDS011;61501;43.316;5.372;2023-04-03T01:43:12;1.60;;;0.80;;
73276;SDS011;61501;43.316;5.372;2023-04-03T01:45:38;1.67;;;1.00;;
73276;SDS011;61501;43.316;5.372;2023-04-03T01:48:03;0.95;;;0.70;;
73276;SDS011;61501;43.316;5.372;2023-04-03T01:50:29;2.00;;;1.27;;
73276;SDS011;61501;43.316;5.372;2023-04-03T01:52:55;2.40;;;1.55;;
73276;SDS011;61501;43.316;5.372;2023-04-03T01:55:20;1.50;;;1.00;;
73276;SDS011;61501;43.316;5.372;2023-04-03T01:57:46;2.97;;;1.90;;
73276;SDS011;61501;43.316;5.372;2023-04-03T02:00:12;1.88;;;1.35;;
73276;SDS011;61501;43.316;5.372;2023-04-03T02:02:38;1.77;;;1.13;;
73276;SDS011;61501;43.316;5.372;2023-04-03T02:05:04;3.50;;;2.08;;
73276;SDS011;61501;43.316;5.372;2023-04-03T02:07:30;1.60;;;1.10;;
73276;SDS011;61501;43.316;5.372;2023-04-03T02:09:56;5.10;;;3.00;;
73276;SDS011;61501;43.316;5.372;2023-04-03T02:12:22;7.03;;;1.52;;
73276;SDS011;61501;43.316;5.372;2023-04-03T02:14:47;3.10;;;1.60;;
73276;SDS011;61501;43.316;5.372;2023-04-03T02:17:13;5.05;;;2.70;;
73276;SDS011;61501;43.316;5.372;2023-04-03T02:19:38;3.60;;;2.30;;
73276;SDS011;61501;43.316;5.372;2023-04-03T02:22:05;3.63;;;1.92;;
73276;SDS011;61501;43.316;5.372;2023-04-03T02:24:31;3.80;;;1.80;;
73276;SDS011;61501;43.316;5.372;2023-04-03T02:26:57;3.92;;;1.52;;
73276;SDS011;61501;43.316;5.372;2023-04-03T02:29:23;2.53;;;1.63;;
73276;SDS011;61501;43.316;5.372;2023-04-03T02:31:49;4.90;;;3.00;;
73276;SDS011;61501;43.316;5.372;2023-04-03T02:34:15;3.45;;;2.03;;
73276;SDS011;61501;43.316;5.372;2023-04-03T02:36:41;3.55;;;2.20;;
73276;SDS011;61501;43.316;5.372;2023-04-03T02:39:07;4.15;;;2.17;;
73276;SDS011;61501;43.316;5.372;2023-04-03T02:41:32;2.35;;;1.05;;
73276;SDS011;61501;43.316;5.372;2023-04-03T02:44:01;2.95;;;1.58;;
73276;SDS011;61501;43.316;5.372;2023-04-03T02:46:28;2.72;;;1.20;;
73276;SDS011;61501;43.316;5.372;2023-04-03T02:48:54;2.38;;;1.20;;
73276;SDS011;61501;43.316;5.372;2023-04-03T02:51:19;1.52;;;1.20;;
73276;SDS011;61501;43.316;5.372;2023-04-03T02:53:45;2.00;;;1.20;;
73276;SDS011;61501;43.316;5.372;2023-04-03T02:56:10;2.13;;;0.95;;
73276;SDS011;61501;43.316;5.372;2023-04-03T02:58:36;1.48;;;1.10;;
73276;SDS011;61501;43.316;5.372;2023-04-03T03:01:02;2.20;;;1.20;;
73276;SDS011;61501;43.316;5.372;2023-04-03T03:03:28;1.80;;;1.13;;
73276;SDS011;61501;43.316;5.372;2023-04-03T03:06:01;2.45;;;1.25;;
73276;SDS011;61501;43.316;5.372;2023-04-03T03:08:33;4.75;;;0.90;;
73276;SDS011;61501;43.316;5.372;2023-04-03T03:11:00;1.80;;;1.10;;
73276;SDS011;61501;43.316;5.372;2023-04-03T03:13:26;1.75;;;1.00;;
73276;SDS011;61501;43.316;5.372;2023-04-03T03:15:51;1.80;;;0.90;;
73276;SDS011;61501;43.316;5.372;2023-04-03T03:18:17;1.05;;;0.80;;
73276;SDS011;61501;43.316;5.372;2023-04-03T03:20:43;2.25;;;0.80;;
73276;SDS011;61501;43.316;5.372;2023-04-03T03:23:08;1.63;;;1.10;;
73276;SDS011;61501;43.316;5.372;2023-04-03T03:25:38;1.95;;;1.02;;
73276;SDS011;61501;43.316;5.372;2023-04-03T03:28:05;2.45;;;1.10;;
73276;SDS011;61501;43.316;5.372;2023-04-03T03:30:31;2.42;;;1.33;;
73276;SDS011;61501;43.316;5.372;2023-04-03T03:32:56;2.30;;;1.20;;
73276;SDS011;61501;43.316;5.372;2023-04-03T03:35:22;2.97;;;1.15;;
73276;SDS011;61501;43.316;5.372;2023-04-03T03:37:47;4.75;;;1.25;;
73276;SDS011;61501;43.316;5.372;2023-04-03T03:40:13;4.57;;;1.27;;
73276;SDS011;61501;43.316;5.372;2023-04-03T03:42:39;2.97;;;1.10;;
73276;SDS011;61501;43.316;5.372;2023-04-03T03:45:05;2.65;;;1.35;;
73276;SDS011;61501;43.316;5.372;2023-04-03T03:47:31;3.28;;;1.77;;
73276;SDS011;61501;43.316;5.372;2023-04-03T03:49:57;4.20;;;1.30;;
73276;SDS011;61501;43.316;5.372;2023-04-03T03:52:22;6.97;;;1.50;;
73276;SDS011;61501;43.316;5.372;2023-04-03T03:54:48;5.47;;;2.17;;
73276;SDS011;61501;43.316;5.372;2023-04-03T03:57:14;3.97;;;2.22;;
73276;SDS011;61501;43.316;5.372;2023-04-03T03:59:40;4.57;;;2.67;;
73276;SDS011;61501;43.316;5.372;2023-04-03T04:02:06;5.60;;;3.00;;
73276;SDS011;61501;43.316;5.372;2023-04-03T04:04:33;5.63;;;2.67;;
73276;SDS011;61501;43.316;5.372;2023-04-03T04:06:58;4.93;;;3.33;;
73276;SDS011;61501;43.316;5.372;2023-04-03T04:09:25;7.15;;;2.72;;
73276;SDS011;61501;43.316;5.372;2023-04-03T04:11:51;5.63;;;3.10;;
73276;SDS011;61501;43.316;5.372;2023-04-03T04:14:17;6.60;;;3.53;;
73276;SDS011;61501;43.316;5.372;2023-04-03T04:16:45;6.75;;;3.85;;
73276;SDS011;61501;43.316;5.372;2023-04-03T04:19:11;10.07;;;6.93;;
73276;SDS011;61501;43.316;5.372;2023-04-03T04:21:38;11.98;;;7.28;;
73276;SDS011;61501;43.316;5.372;2023-04-03T04:24:04;13.32;;;8.48;;
73276;SDS011;61501;43.316;5.372;2023-04-03T04:26:30;12.98;;;8.57;;
73276;SDS011;61501;43.316;5.372;2023-04-03T04:28:56;12.23;;;8.30;;
73276;SDS011;61501;43.316;5.372;2023-04-03T04:31:22;13.48;;;8.55;;
73276;SDS011;61501;43.316;5.372;2023-04-03T04:33:47;13.20;;;8.25;;
73276;SDS011;61501;43.316;5.372;2023-04-03T04:36:13;14.30;;;9.52;;
73276;SDS011;61501;43.316;5.372;2023-04-03T04:38:39;13.43;;;8.70;;
73276;SDS011;61501;43.316;5.372;2023-04-03T04:41:05;13.05;;;8.27;;
73276;SDS011;61501;43.316;5.372;2023-04-03T04:43:31;12.00;;;7.38;;
73276;SDS011;61501;43.316;5.372;2023-04-03T04:46:15;11.35;;;7.40;;
73276;SDS011;61501;43.316;5.372;2023-04-03T04:48:42;12.35;;;8.55;;
73276;SDS011;61501;43.316;5.372;2023-04-03T04:51:08;12.52;;;7.47;;
73276;SDS011;61501;43.316;5.372;2023-04-03T04:53:33;10.90;;;6.68;;
73276;SDS011;61501;43.316;5.372;2023-04-03T04:55:59;11.75;;;6.97;;
73276;SDS011;61501;43.316;5.372;2023-04-03T04:58:25;11.88;;;7.20;;
73276;SDS011;61501;43.316;5.372;2023-04-03T05:01:04;10.43;;;6.78;;
73276;SDS011;61501;43.316;5.372;2023-04-03T05:03:31;14.50;;;7.60;;
73276;SDS011;61501;43.316;5.372;2023-04-03T05:05:57;12.80;;;8.85;;
73276;SDS011;61501;43.316;5.372;2023-04-03T05:08:23;14.25;;;7.90;;
73276;SDS011;61501;43.316;5.372;2023-04-03T05:10:49;25.08;;;8.18;;
73276;SDS011;61501;43.316;5.372;2023-04-03T05:13:14;15.95;;;8.95;;
73276;SDS011;61501;43.316;5.372;2023-04-03T05:15:40;14.13;;;8.07;;
73276;SDS011;61501;43.316;5.372;2023-04-03T05:18:06;11.75;;;7.13;;
73276;SDS011;61501;43.316;5.372;2023-04-03T05:20:32;10.45;;;6.63;;
73276;SDS011;61501;43.316;5.372;2023-04-03T05:22:58;11.07;;;7.07;;
73276;SDS011;61501;43.316;5.372;2023-04-03T05:25:24;10.38;;;6.47;;
73276;SDS011;61501;43.316;5.372;2023-04-03T05:27:50;10.00;;;6.63;;
73276;SDS011;61501;43.316;5.372;2023-04-03T05:30:16;10.50;;;6.65;;
73276;SDS011;61501;43.316;5.372;2023-04-03T05:32:42;11.18;;;7.57;;
73276;SDS011;61501;43.316;5.372;2023-04-03T05:35:09;14.18;;;8.57;;
73276;SDS011;61501;43.316;5.372;2023-04-03T05:37:35;14.25;;;8.32;;
73276;SDS011;61501;43.316;5.372;2023-04-03T05:40:01;13.10;;;8.82;;
73276;SDS011;61501;43.316;5.372;2023-04-03T05:42:28;15.20;;;9.27;;
73276;SDS011;61501;43.316;5.372;2023-04-03T05:44:53;17.55;;;10.23;;
73276;SDS011;61501;43.316;5.372;2023-04-03T05:47:19;13.40;;;9.07;;
73276;SDS011;61501;43.316;5.372;2023-04-03T05:49:45;14.40;;;8.88;;
73276;SDS011;61501;43.316;5.372;2023-04-03T05:52:21;13.05;;;7.57;;
73276;SDS011;61501;43.316;5.372;2023-04-03T05:54:52;10.23;;;5.43;;
73276;SDS011;61501;43.316;5.372;2023-04-03T05:57:18;9.63;;;5.85;;
73276;SDS011;61501;43.316;5.372;2023-04-03T05:59:44;9.68;;;5.47;;
73276;SDS011;61501;43.316;5.372;2023-04-03T06:02:11;12.93;;;7.30;;
73276;SDS011;61501;43.316;5.372;2023-04-03T06:04:39;19.60;;;10.65;;
73276;SDS011;61501;43.316;5.372;2023-04-03T06:07:05;18.52;;;12.45;;
73276;SDS011;61501;43.316;5.372;2023-04-03T06:09:32;18.08;;;11.23;;
73276;SDS011;61501;43.316;5.372;2023-04-03T06:11:58;21.15;;;12.23;;
73276;SDS011;61501;43.316;5.372;2023-04-03T06:14:25;21.23;;;12.35;;
73276;SDS011;61501;43.316;5.372;2023-04-03T06:16:51;21.67;;;11.65;;
73276;SDS011;61501;43.316;5.372;2023-04-03T06:19:17;14.77;;;9.35;;
73276;SDS011;61501;43.316;5.372;2023-04-03T06:21:43;12.10;;;6.30;;
73276;SDS011;61501;43.316;5.372;2023-04-03T06:24:09;10.98;;;6.20;;
73276;SDS011;61501;43.316;5.372;2023-04-03T06:26:39;11.18;;;7.30;;
73276;SDS011;61501;43.316;5.372;2023-04-03T06:29:05;17.02;;;11.57;;
73276;SDS011;61501;43.316;5.372;2023-04-03T06:31:31;27.70;;;17.50;;
73276;SDS011;61501;43.316;5.372;2023-04-03T06:33:56;25.67;;;16.55;;
73276;SDS011;61501;43.316;5.372;2023-04-03T06:36:22;18.48;;;12.60;;
73276;SDS011;61501;43.316;5.372;2023-04-03T06:38:48;21.00;;;12.38;;
73276;SDS011;61501;43.316;5.372;2023-04-03T06:41:14;20.98;;;11.95;;
73276;SDS011;61501;43.316;5.372;2023-04-03T06:43:41;26.05;;;11.82;;
73276;SDS011;61501;43.316;5.372;2023-04-03T06:46:12;15.27;;;9.20;;
73276;SDS011;61501;43.316;5.372;2023-04-03T06:48:45;20.77;;;9.75;;
73276;SDS011;61501;43.316;5.372;2023-04-03T06:51:15;18.45;;;10.20;;
73276;SDS011;61501;43.316;5.372;2023-04-03T06:54:00;19.83;;;9.52;;
73276;SDS011;61501;43.316;5.372;2023-04-03T06:56:28;17.85;;;9.63;;
73276;SDS011;61501;43.316;5.372;2023-04-03T06:58:54;14.13;;;7.82;;
73276;SDS011;61501;43.316;5.372;2023-04-03T07:01:23;14.65;;;7.75;;
73276;SDS011;61501;43.316;5.372;2023-04-03T07:03:51;15.93;;;8.52;;
73276;SDS011;61501;43.316;5.372;2023-04-03T07:06:17;17.00;;;9.18;;
73276;SDS011;61501;43.316;5.372;2023-04-03T07:08:44;13.52;;;7.90;;
73276;SDS011;61501;43.316;5.372;2023-04-03T07:11:11;12.25;;;7.05;;
73276;SDS011;61501;43.316;5.372;2023-04-03T07:13:37;16.73;;;7.32;;
73276;SDS011;61501;43.316;5.372;2023-04-03T07:16:04;13.00;;;6.22;;
73276;SDS011;61501;43.316;5.372;2023-04-03T07:18:31;11.30;;;6.45;;
73276;SDS011;61501;43.316;5.372;2023-04-03T07:20:57;16.23;;;6.38;;
73276;SDS011;61501;43.316;5.372;2023-04-03T07:23:23;16.27;;;8.23;;
73276;SDS011;61501;43.316;5.372;2023-04-03T07:25:50;17.67;;;9.77;;
73276;SDS011;61501;43.316;5.372;2023-04-03T07:28:17;19.23;;;8.23;;
73276;SDS011;61501;43.316;5.372;2023-04-03T07:30:48;19.95;;;7.93;;
73276;SDS011;61501;43.316;5.372;2023-04-03T07:33:16;17.73;;;7.63;;
73276;SDS011;61501;43.316;5.372;2023-04-03T07:35:43;15.07;;;5.40;;
73276;SDS011;61501;43.316;5.372;2023-04-03T07:38:10;14.95;;;5.43;;
73276;SDS011;61501;43.316;5.372;2023-04-03T07:40:36;7.57;;;3.50;;
73276;SDS011;61501;43.316;5.372;2023-04-03T07:43:03;12.15;;;4.03;;
73276;SDS011;61501;43.316;5.372;2023-04-03T07:45:29;7.97;;;2.50;;
73276;SDS011;61501;43.316;5.372;2023-04-03T07:47:55;6.20;;;2.33;;
73276;SDS011;61501;43.316;5.372;2023-04-03T07:50:21;6.43;;;2.08;;
73276;SDS011;61501;43.316;5.372;2023-04-03T07:52:47;7.72;;;2.10;;
73276;SDS011;61501;43.316;5.372;2023-04-03T07:55:13;6.38;;;1.88;;
73276;SDS011;61501;43.316;5.372;2023-04-03T07:57:39;11.82;;;2.58;;
73276;SDS011;61501;43.316;5.372;2023-04-03T08:00:06;7.50;;;2.13;;
73276;SDS011;61501;43.316;5.372;2023-04-03T08:02:33;4.63;;;2.10;;
73276;SDS011;61501;43.316;5.372;2023-04-03T08:04:59;5.90;;;2.20;;
73276;SDS011;61501;43.316;5.372;2023-04-03T08:07:25;5.18;;;2.50;;
73276;SDS011;61501;43.316;5.372;2023-04-03T08:09:50;6.82;;;2.75;;
73276;SDS011;61501;43.316;5.372;2023-04-03T08:12:16;6.88;;;2.60;;
73276;SDS011;61501;43.316;5.372;2023-04-03T08:14:42;4.90;;;1.92;;
73276;SDS011;61501;43.316;5.372;2023-04-03T08:17:08;6.32;;;2.10;;
73276;SDS011;61501;43.316;5.372;2023-04-03T08:19:37;4.32;;;2.15;;
73276;SDS011;61501;43.316;5.372;2023-04-03T08:22:03;5.93;;;2.90;;
73276;SDS011;61501;43.316;5.372;2023-04-03T08:24:30;6.70;;;2.67;;
73276;SDS011;61501;43.316;5.372;2023-04-03T08:26:57;5.65;;;2.10;;
73276;SDS011;61501;43.316;5.372;2023-04-03T08:29:23;3.28;;;1.45;;
73276;SDS011;61501;43.316;5.372;2023-04-03T08:31:48;4.13;;;1.08;;
73276;SDS011;61501;43.316;5.372;2023-04-03T08:34:15;5.25;;;1.30;;
73276;SDS011;61501;43.316;5.372;2023-04-03T08:36:41;3.08;;;0.98;;
73276;SDS011;61501;43.316;5.372;2023-04-03T08:39:07;3.58;;;1.05;;
73276;SDS011;61501;43.316;5.372;2023-04-03T08:52:15;6.10;;;1.20;;
73276;SDS011;61501;43.316;5.372;2023-04-03T08:57:16;2.17;;;1.27;;
73276;SDS011;61501;43.316;5.372;2023-04-03T08:59:45;4.03;;;1.20;;
73276;SDS011;61501;43.316;5.372;2023-04-03T09:02:25;2.00;;;0.90;;
73276;SDS011;61501;43.316;5.372;2023-04-03T09:04:54;2.00;;;0.85;;
73276;SDS011;61501;43.316;5.372;2023-04-03T09:07:42;2.80;;;0.80;;
73276;SDS011;61501;43.316;5.372;2023-04-03T09:10:12;2.92;;;0.90;;
73276;SDS011;61501;43.316;5.372;2023-04-03T09:12:40;1.50;;;0.75;;
73276;SDS011;61501;43.316;5.372;2023-04-03T09:23:28;6.68;;;1.48;;
73276;SDS011;61501;43.316;5.372;2023-04-03T09:26:09;8.75;;;1.60;;
73276;SDS011;61501;43.316;5.372;2023-04-03T09:28:41;5.60;;;1.55;;
73276;SDS011;61501;43.316;5.372;2023-04-03T09:31:26;5.57;;;1.98;;
73276;SDS011;61501;43.316;5.372;2023-04-03T09:33:55;13.25;;;1.83;;
73276;SDS011;61501;43.316;5.372;2023-04-03T09:39:11;3.47;;;2.30;;
73276;SDS011;61501;43.316;5.372;2023-04-03T09:41:41;4.80;;;1.58;;
73276;SDS011;61501;43.316;5.372;2023-04-03T09:44:26;6.75;;;1.88;;
73276;SDS011;61501;43.316;5.372;2023-04-03T09:46:57;7.07;;;1.85;;
73276;SDS011;61501;43.316;5.372;2023-04-03T09:49:23;6.13;;;2.00;;
73276;SDS011;61501;43.316;5.372;2023-04-03T09:51:49;4.03;;;1.48;;
73276;SDS011;61501;43.316;5.372;2023-04-03T09:54:25;4.50;;;1.40;;
73276;SDS011;61501;43.316;5.372;2023-04-03T09:56:52;6.25;;;1.77;;
73276;SDS011;61501;43.316;5.372;2023-04-03T09:59:20;3.15;;;1.42;;
73276;SDS011;61501;43.316;5.372;2023-04-03T10:02:00;3.55;;;1.20;;
73276;SDS011;61501;43.316;5.372;2023-04-03T10:04:38;5.88;;;1.40;;
73276;SDS011;61501;43.316;5.372;2023-04-03T10:07:25;4.80;;;2.08;;
73276;SDS011;61501;43.316;5.372;2023-04-03T10:09:56;6.78;;;1.52;;
73276;SDS011;61501;43.316;5.372;2023-04-03T10:12:23;5.13;;;2.05;;
73276;SDS011;61501;43.316;5.372;2023-04-03T10:19:56;3.72;;;1.00;;
73276;SDS011;61501;43.316;5.372;2023-04-03T10:28:40;2.72;;;0.90;;
73276;SDS011;61501;43.316;5.372;2023-04-03T10:31:18;5.22;;;0.82;;
73276;SDS011;61501;43.316;5.372;2023-04-03T10:39:22;2.85;;;1.48;;
73276;SDS011;61501;43.316;5.372;2023-04-03T10:45:15;4.57;;;1.08;;
73276;SDS011;61501;43.316;5.372;2023-04-03T10:50:38;1.77;;;0.90;;
73276;SDS011;61501;43.316;5.372;2023-04-03T10:57:59;5.60;;;1.08;;
73276;SDS011;61501;43.316;5.372;2023-04-03T11:00:47;1.67;;;0.95;;
73276;SDS011;61501;43.316;5.372;2023-04-03T11:03:15;2.90;;;0.82;;
73276;SDS011;61501;43.316;5.372;2023-04-03T11:05:49;2.38;;;0.90;;
73276;SDS011;61501;43.316;5.372;2023-04-03T11:08:33;3.70;;;0.95;;
73276;SDS011;61501;43.316;5.372;2023-04-03T11:11:22;3.33;;;0.80;;
73276;SDS011;61501;43.316;5.372;2023-04-03T11:13:53;2.47;;;0.85;;
73276;SDS011;61501;43.316;5.372;2023-04-03T11:16:48;1.70;;;0.80;;
73276;SDS011;61501;43.316;5.372;2023-04-03T11:19:36;4.75;;;0.90;;
73276;SDS011;61501;43.316;5.372;2023-04-03T11:22:22;4.15;;;0.88;;
73276;SDS011;61501;43.316;5.372;2023-04-03T11:25:35;4.82;;;1.02;;
73276;SDS011;61501;43.316;5.372;2023-04-03T11:27:57;8.27;;;1.35;;
73276;SDS011;61501;43.316;5.372;2023-04-03T11:36:07;3.40;;;1.00;;
73276;SDS011;61501;43.316;5.372;2023-04-03T11:38:43;2.25;;;0.75;;
73276;SDS011;61501;43.316;5.372;2023-04-03T11:41:11;3.13;;;0.80;;
73276;SDS011;61501;43.316;5.372;2023-04-03T11:43:43;2.70;;;0.90;;
73276;SDS011;61501;43.316;5.372;2023-04-03T11:46:22;3.58;;;1.10;;
73276;SDS011;61501;43.316;5.372;2023-04-03T11:49:32;1.85;;;0.80;;
73276;SDS011;61501;43.316;5.372;2023-04-03T12:11:31;3.35;;;1.42;;
73276;SDS011;61501;43.316;5.372;2023-04-03T12:34:38;1.85;;;1.00;;
73276;SDS011;61501;43.316;5.372;2023-04-03T12:40:34;5.57;;;0.90;;
73276;SDS011;61501;43.316;5.372;2023-04-03T12:43:20;4.32;;;0.90;;
73276;SDS011;61501;43.316;5.372;2023-04-03T12:51:13;7.50;;;1.50;;
73276;SDS011;61501;43.316;5.372;2023-04-03T12:54:00;1.25;;;1.10;;
73276;SDS011;61501;43.316;5.372;2023-04-03T12:56:31;2.05;;;1.00;;
73276;SDS011;61501;43.316;5.372;2023-04-03T13:01:54;6.15;;;0.90;;
73276;SDS011;61501;43.316;5.372;2023-04-03T13:04:24;2.97;;;1.00;;
73276;SDS011;61501;43.316;5.372;2023-04-03T13:06:50;10.88;;;1.45;;
73276;SDS011;61501;43.316;5.372;2023-04-03T13:09:25;2.60;;;1.10;;
73276;SDS011;61501;43.316;5.372;2023-04-03T13:11:57;4.00;;;1.00;;
73276;SDS011;61501;43.316;5.372;2023-04-03T13:14:26;3.15;;;1.00;;
73276;SDS011;61501;43.316;5.372;2023-04-03T13:19:26;1.65;;;0.98;;
73276;SDS011;61501;43.316;5.372;2023-04-03T13:21:55;1.77;;;0.82;;
73276;SDS011;61501;43.316;5.372;2023-04-03T13:24:28;2.15;;;0.98;;
73276;SDS011;61501;43.316;5.372;2023-04-03T13:26:56;1.77;;;1.10;;
73276;SDS011;61501;43.316;5.372;2023-04-03T13:29:24;2.47;;;1.15;;
73276;SDS011;61501;43.316;5.372;2023-04-03T13:31:55;2.97;;;0.80;;
73276;SDS011;61501;43.316;5.372;2023-04-03T13:34:22;2.13;;;0.90;;
73276;SDS011;61501;43.316;5.372;2023-04-03T13:39:34;3.55;;;1.13;;
73276;SDS011;61501;43.316;5.372;2023-04-03T13:42:21;7.80;;;1.20;;
73276;SDS011;61501;43.316;5.372;2023-04-03T13:45:05;3.13;;;0.82;;
73276;SDS011;61501;43.316;5.372;2023-04-03T13:47:45;6.57;;;1.17;;
73276;SDS011;61501;43.316;5.372;2023-04-03T13:55:25;1.63;;;0.90;;
73276;SDS011;61501;43.316;5.372;2023-04-03T13:58:00;5.43;;;1.15;;
73276;SDS011;61501;43.316;5.372;2023-04-03T14:01:14;2.40;;;1.20;;
73276;SDS011;61501;43.316;5.372;2023-04-03T14:06:34;4.70;;;1.10;;
73276;SDS011;61501;43.316;5.372;2023-04-03T14:09:00;3.00;;;1.00;;
73276;SDS011;61501;43.316;5.372;2023-04-03T14:11:26;2.70;;;0.80;;
73276;SDS011;61501;43.316;5.372;2023-04-03T14:13:55;1.77;;;1.00;;
73276;SDS011;61501;43.316;5.372;2023-04-03T14:16:27;5.57;;;1.23;;
73276;SDS011;61501;43.316;5.372;2023-04-03T14:18:55;3.55;;;1.15;;
73276;SDS011;61501;43.316;5.372;2023-04-03T14:21:21;2.42;;;1.30;;
73276;SDS011;61501;43.316;5.372;2023-04-03T14:23:47;9.70;;;2.22;;
73276;SDS011;61501;43.316;5.372;2023-04-03T14:26:15;2.72;;;1.95;;
73276;SDS011;61501;43.316;5.372;2023-04-03T14:28:47;5.18;;;2.55;;
73276;SDS011;61501;43.316;5.372;2023-04-03T14:31:14;4.00;;;2.30;;
73276;SDS011;61501;43.316;5.372;2023-04-03T14:33:41;4.22;;;2.38;;
73276;SDS011;61501;43.316;5.372;2023-04-03T14:36:11;4.00;;;2.20;;
73276;SDS011;61501;43.316;5.372;2023-04-03T14:38:38;4.72;;;1.98;;
73276;SDS011;61501;43.316;5.372;2023-04-03T14:41:05;3.60;;;1.80;;
73276;SDS011;61501;43.316;5.372;2023-04-03T14:43:31;3.13;;;1.60;;
73276;SDS011;61501;43.316;5.372;2023-04-03T14:45:57;10.57;;;2.05;;
73276;SDS011;61501;43.316;5.372;2023-04-03T14:48:24;2.85;;;1.65;;
73276;SDS011;61501;43.316;5.372;2023-04-03T14:50:52;2.70;;;1.40;;
73276;SDS011;61501;43.316;5.372;2023-04-03T14:53:18;3.25;;;1.40;;
73276;SDS011;61501;43.316;5.372;2023-04-03T14:55:48;2.88;;;1.30;;
73276;SDS011;61501;43.316;5.372;2023-04-03T14:58:15;4.63;;;1.23;;
73276;SDS011;61501;43.316;5.372;2023-04-03T15:00:43;2.15;;;1.02;;
73276;SDS011;61501;43.316;5.372;2023-04-03T15:03:20;4.13;;;1.30;;
73276;SDS011;61501;43.316;5.372;2023-04-03T15:05:47;4.30;;;1.60;;
73276;SDS011;61501;43.316;5.372;2023-04-03T15:08:18;4.30;;;1.33;;
73276;SDS011;61501;43.316;5.372;2023-04-03T15:10:46;4.43;;;1.02;;
73276;SDS011;61501;43.316;5.372;2023-04-03T15:13:12;1.55;;;0.98;;
73276;SDS011;61501;43.316;5.372;2023-04-03T15:15:39;3.25;;;0.98;;
73276;SDS011;61501;43.316;5.372;2023-04-03T15:18:04;2.25;;;1.20;;
73276;SDS011;61501;43.316;5.372;2023-04-03T15:20:31;3.60;;;1.23;;
73276;SDS011;61501;43.316;5.372;2023-04-03T15:22:58;3.80;;;1.15;;
73276;SDS011;61501;43.316;5.372;2023-04-03T15:25:29;2.05;;;1.05;;
73276;SDS011;61501;43.316;5.372;2023-04-03T15:27:56;3.85;;;1.15;;
73276;SDS011;61501;43.316;5.372;2023-04-03T15:30:22;4.30;;;1.30;;
73276;SDS011;61501;43.316;5.372;2023-04-03T15:32:48;4.22;;;1.10;;
73276;SDS011;61501;43.316;5.372;2023-04-03T15:35:15;3.78;;;1.33;;
73276;SDS011;61501;43.316;5.372;2023-04-03T15:37:41;4.28;;;1.42;;
73276;SDS011;61501;43.316;5.372;2023-04-03T15:40:06;1.83;;;1.20;;
73276;SDS011;61501;43.316;5.372;2023-04-03T15:42:33;3.10;;;1.10;;
73276;SDS011;61501;43.316;5.372;2023-04-03T15:44:59;2.78;;;1.20;;
73276;SDS011;61501;43.316;5.372;2023-04-03T15:47:25;5.65;;;1.20;;
73276;SDS011;61501;43.316;5.372;2023-04-03T15:49:51;3.20;;;1.13;;
73276;SDS011;61501;43.316;5.372;2023-04-03T15:52:18;7.97;;;1.17;;
73276;SDS011;61501;43.316;5.372;2023-04-03T15:54:44;5.85;;;1.23;;
73276;SDS011;61501;43.316;5.372;2023-04-03T15:57:10;5.18;;;1.30;;
73276;SDS011;61501;43.316;5.372;2023-04-03T15:59:35;2.33;;;1.30;;
73276;SDS011;61501;43.316;5.372;2023-04-03T16:02:01;5.95;;;1.27;;
73276;SDS011;61501;43.316;5.372;2023-04-03T16:04:30;10.07;;;1.80;;
73276;SDS011;61501;43.316;5.372;2023-04-03T16:06:56;7.00;;;1.77;;
73276;SDS011;61501;43.316;5.372;2023-04-03T16:09:22;1.95;;;1.30;;
73276;SDS011;61501;43.316;5.372;2023-04-03T16:11:48;5.10;;;1.40;;
73276;SDS011;61501;43.316;5.372;2023-04-03T16:14:13;7.30;;;1.65;;
73276;SDS011;61501;43.316;5.372;2023-04-03T16:16:39;7.38;;;1.98;;
73276;SDS011;61501;43.316;5.372;2023-04-03T16:19:05;4.82;;;1.25;;
73276;SDS011;61501;43.316;5.372;2023-04-03T16:21:31;4.32;;;1.45;;
73276;SDS011;61501;43.316;5.372;2023-04-03T16:23:58;2.75;;;1.10;;
73276;SDS011;61501;43.316;5.372;2023-04-03T16:26:23;5.65;;;1.55;;
73276;SDS011;61501;43.316;5.372;2023-04-03T16:28:50;7.35;;;1.38;;
73276;SDS011;61501;43.316;5.372;2023-04-03T16:31:16;8.88;;;1.45;;
73276;SDS011;61501;43.316;5.372;2023-04-03T16:33:41;3.78;;;1.40;;
73276;SDS011;61501;43.316;5.372;2023-04-03T16:36:10;7.85;;;1.40;;
73276;SDS011;61501;43.316;5.372;2023-04-03T16:38:36;5.93;;;1.40;;
73276;SDS011;61501;43.316;5.372;2023-04-03T16:41:01;3.95;;;1.30;;
73276;SDS011;61501;43.316;5.372;2023-04-03T16:43:30;5.90;;;1.48;;
73276;SDS011;61501;43.316;5.372;2023-04-03T16:45:56;7.03;;;1.52;;
73276;SDS011;61501;43.316;5.372;2023-04-03T16:48:22;3.15;;;1.33;;
73276;SDS011;61501;43.316;5.372;2023-04-03T16:50:50;5.20;;;1.42;;
73276;SDS011;61501;43.316;5.372;2023-04-03T16:53:18;5.55;;;1.40;;
73276;SDS011;61501;43.316;5.372;2023-04-03T16:55:48;2.92;;;1.35;;
73276;SDS011;61501;43.316;5.372;2023-04-03T16:58:14;2.55;;;1.20;;
73276;SDS011;61501;43.316;5.372;2023-04-03T17:00:40;2.97;;;1.10;;
73276;SDS011;61501;43.316;5.372;2023-04-03T17:03:07;5.78;;;1.42;;
73276;SDS011;61501;43.316;5.372;2023-04-03T17:05:32;4.03;;;1.50;;
73276;SDS011;61501;43.316;5.372;2023-04-03T17:07:58;2.53;;;1.17;;